createdAt,value
2023-01-25T00:02:15.235Z,3.70
2023-01-25T00:04:45.179Z,2.80
2023-01-25T00:07:14.995Z,3.20
2023-01-25T00:09:45.427Z,3.70
2023-01-25T00:12:17.047Z,3.30
2023-01-25T00:14:48.276Z,3.67
2023-01-25T00:17:20.803Z,3.10
2023-01-25T00:19:50.974Z,3.17
2023-01-25T00:22:21.061Z,2.60
2023-01-25T00:24:51.557Z,3.03
2023-01-25T00:27:21.443Z,2.93
2023-01-25T00:29:52.136Z,2.80
2023-01-25T00:32:56.128Z,3.07
2023-01-25T00:35:26.296Z,3.47
2023-01-25T00:37:58.143Z,3.00
2023-01-25T00:40:28.675Z,2.37
2023-01-25T00:43:01.211Z,3.53
2023-01-25T00:45:31.137Z,3.83
2023-01-25T00:48:05.489Z,3.23
2023-01-25T00:50:35.570Z,3.40
2023-01-25T00:53:06.665Z,2.90
2023-01-25T00:55:37.295Z,4.07
2023-01-25T00:58:08.169Z,5.70
2023-01-25T01:00:38.230Z,3.80
2023-01-25T01:03:11.200Z,3.60
2023-01-25T01:05:41.103Z,3.70
2023-01-25T01:08:11.522Z,3.23
2023-01-25T01:10:42.103Z,2.30
2023-01-25T01:13:13.160Z,3.50
2023-01-25T01:15:44.848Z,2.10
2023-01-25T01:18:17.989Z,1.87
2023-01-25T01:20:51.986Z,2.53
2023-01-25T01:23:25.245Z,1.87
2023-01-25T01:25:55.530Z,2.90
2023-01-25T01:28:26.426Z,2.63
2023-01-25T01:30:56.456Z,2.60
2023-01-25T01:33:30.946Z,2.27
2023-01-25T01:36:01.372Z,2.60
2023-01-25T01:38:32.026Z,2.40
2023-01-25T01:41:02.010Z,3.13
2023-01-25T01:43:34.443Z,2.07
2023-01-25T01:46:08.787Z,5.27
2023-01-25T01:48:46.361Z,2.80
2023-01-25T01:51:22.260Z,3.40
2023-01-25T01:53:58.192Z,3.47
2023-01-25T01:56:34.525Z,2.57
2023-01-25T01:59:08.392Z,3.07
2023-01-25T02:01:39.601Z,3.23
2023-01-25T02:04:13.903Z,2.97
2023-01-25T02:06:50.187Z,3.07
2023-01-25T02:09:24.485Z,3.10
2023-01-25T02:11:56.198Z,2.70
2023-01-25T02:14:27.998Z,2.40
2023-01-25T02:16:59.341Z,2.90
2023-01-25T02:19:41.624Z,3.10
2023-01-25T02:22:16.589Z,5.00
2023-01-25T02:24:53.884Z,4.70
2023-01-25T02:27:26.463Z,2.90
2023-01-25T02:29:57.908Z,4.57
2023-01-25T02:32:29.426Z,4.80
2023-01-25T02:35:00.905Z,4.03
2023-01-25T02:37:34.045Z,4.17
2023-01-25T02:40:06.175Z,3.33
2023-01-25T02:42:40.183Z,2.10
2023-01-25T02:45:14.717Z,2.60
2023-01-25T02:47:45.080Z,2.60
2023-01-25T02:50:16.026Z,2.40
2023-01-25T02:52:46.538Z,3.50
2023-01-25T02:55:17.164Z,3.23
2023-01-25T02:57:52.056Z,3.27
2023-01-25T03:00:24.310Z,3.70
2023-01-25T03:02:54.656Z,4.13
2023-01-25T03:05:27.359Z,3.00
2023-01-25T03:07:58.121Z,2.97
2023-01-25T03:10:29.037Z,5.23
2023-01-25T03:13:02.329Z,5.40
2023-01-25T03:15:33.110Z,3.73
2023-01-25T03:18:04.579Z,4.90
2023-01-25T03:20:35.750Z,3.10
2023-01-25T03:23:06.211Z,3.10
2023-01-25T03:25:38.408Z,3.40
2023-01-25T03:28:17.334Z,3.13
2023-01-25T03:30:56.370Z,3.70
2023-01-25T03:33:26.387Z,4.03
2023-01-25T03:35:57.317Z,3.10
2023-01-25T03:38:28.956Z,3.60
2023-01-25T03:41:02.074Z,2.90
2023-01-25T03:43:34.801Z,5.10
2023-01-25T03:46:05.829Z,4.97
2023-01-25T03:48:37.009Z,3.60
2023-01-25T03:51:08.615Z,3.37
2023-01-25T03:53:39.703Z,5.03
2023-01-25T03:56:20.528Z,4.40
2023-01-25T03:59:02.349Z,6.37
2023-01-25T04:01:33.789Z,5.00
2023-01-25T04:04:05.491Z,4.87
2023-01-25T04:06:37.081Z,3.97
2023-01-25T04:09:08.657Z,8.23
2023-01-25T04:11:46.383Z,6.13
2023-01-25T04:14:31.816Z,6.53
2023-01-25T04:17:11.633Z,6.90
2023-01-25T04:19:46.376Z,6.70
2023-01-25T04:22:19.537Z,7.50
2023-01-25T04:24:52.908Z,11.63
2023-01-25T04:27:23.959Z,21.27
2023-01-25T04:30:19.854Z,12.43
2023-01-25T04:32:52.099Z,14.57
2023-01-25T04:35:28.002Z,15.97
2023-01-25T04:38:00.045Z,14.80
2023-01-25T04:40:38.507Z,10.03
2023-01-25T04:43:09.267Z,5.90
2023-01-25T04:45:42.685Z,6.50
2023-01-25T04:48:19.015Z,7.20
2023-01-25T04:50:54.795Z,6.30
2023-01-25T04:53:26.572Z,5.03
2023-01-25T04:55:59.263Z,6.03
2023-01-25T04:58:29.872Z,6.27
2023-01-25T05:01:07.744Z,7.03
2023-01-25T05:03:37.991Z,6.47
2023-01-25T05:06:12.845Z,7.97
2023-01-25T05:08:42.988Z,6.87
2023-01-25T05:11:13.518Z,4.50
2023-01-25T05:13:52.100Z,3.17
2023-01-25T05:16:32.071Z,3.40
2023-01-25T05:19:03.483Z,5.60
2023-01-25T05:22:04.149Z,3.73
2023-01-25T05:24:43.172Z,5.37
2023-01-25T05:27:14.083Z,3.43
2023-01-25T05:29:59.492Z,8.53
2023-01-25T05:33:00.575Z,8.13
2023-01-25T05:35:31.359Z,8.50
2023-01-25T05:38:02.831Z,7.50
2023-01-25T05:40:33.951Z,9.10
2023-01-25T05:43:04.723Z,9.23
2023-01-25T05:45:35.783Z,4.63
2023-01-25T05:48:10.365Z,6.50
2023-01-25T05:50:41.421Z,8.03
2023-01-25T05:53:14.506Z,9.00
2023-01-25T05:55:45.379Z,6.60
2023-01-25T05:58:19.753Z,7.13
2023-01-25T06:00:50.006Z,9.57
2023-01-25T06:03:33.901Z,6.30
2023-01-25T06:06:05.273Z,9.73
2023-01-25T06:08:36.210Z,10.73
2023-01-25T06:11:10.323Z,7.37
2023-01-25T06:13:44.367Z,9.30
2023-01-25T06:16:15.560Z,9.80
2023-01-25T06:18:48.237Z,8.67
2023-01-25T06:21:53.499Z,8.23
2023-01-25T06:24:23.355Z,9.40
2023-01-25T06:26:53.657Z,7.87
2023-01-25T06:29:23.469Z,11.40
2023-01-25T06:31:55.302Z,8.60
2023-01-25T06:34:27.845Z,7.93
2023-01-25T06:36:58.106Z,10.03
2023-01-25T06:39:29.774Z,11.57
2023-01-25T06:42:00.611Z,13.80
2023-01-25T06:44:30.540Z,16.83
2023-01-25T06:47:00.751Z,15.30
2023-01-25T06:49:33.409Z,14.70
2023-01-25T06:52:04.537Z,11.20
2023-01-25T06:54:34.447Z,15.90
2023-01-25T06:57:04.974Z,15.17
2023-01-25T06:59:34.781Z,14.80
2023-01-25T07:02:05.441Z,8.27
2023-01-25T07:04:38.126Z,14.17
2023-01-25T07:07:11.044Z,12.93
2023-01-25T07:09:40.862Z,16.20
2023-01-25T07:12:10.881Z,13.80
2023-01-25T07:14:40.698Z,15.87
2023-01-25T07:17:11.125Z,15.80
2023-01-25T07:19:43.585Z,12.17
2023-01-25T07:22:18.073Z,10.00
2023-01-25T07:24:50.775Z,9.20
2023-01-25T07:27:21.436Z,12.03
2023-01-25T07:29:51.242Z,14.77
2023-01-25T07:32:21.413Z,10.43
2023-01-25T07:34:53.837Z,15.00
2023-01-25T07:37:24.054Z,19.37
2023-01-25T07:39:53.851Z,15.83
2023-01-25T07:42:25.904Z,19.00
2023-01-25T07:45:14.643Z,14.70
2023-01-25T07:47:45.321Z,18.63
2023-01-25T07:50:18.834Z,10.07
2023-01-25T07:52:49.730Z,13.30
2023-01-25T07:55:19.710Z,19.60
2023-01-25T07:57:49.785Z,5.27
2023-01-25T08:00:20.803Z,11.50
2023-01-25T08:02:53.415Z,11.53
2023-01-25T08:05:25.939Z,18.43
2023-01-25T08:07:56.151Z,13.73
2023-01-25T08:10:26.023Z,16.50
2023-01-25T08:12:56.639Z,26.47
2023-01-25T08:15:26.474Z,19.37
2023-01-25T08:17:56.866Z,14.80
2023-01-25T08:20:29.514Z,14.57
2023-01-25T08:23:00.004Z,19.50
2023-01-25T08:25:30.120Z,13.73
2023-01-25T08:28:00.596Z,9.03
2023-01-25T08:30:30.538Z,18.87
2023-01-25T08:33:01.308Z,20.97
2023-01-25T08:35:35.751Z,19.73
2023-01-25T08:38:06.192Z,19.97
2023-01-25T08:40:38.342Z,20.77
2023-01-25T08:43:08.937Z,19.30
2023-01-25T08:45:39.176Z,21.00
2023-01-25T08:48:09.234Z,20.90
2023-01-25T08:50:41.694Z,14.27
2023-01-25T08:53:12.326Z,18.67
2023-01-25T08:55:43.189Z,22.40
2023-01-25T08:58:14.090Z,23.63
2023-01-25T09:00:45.082Z,15.00
2023-01-25T09:03:15.519Z,21.13
2023-01-25T09:05:48.028Z,15.80
2023-01-25T09:08:18.102Z,22.77
2023-01-25T09:10:47.936Z,26.13
2023-01-25T09:13:18.183Z,26.73
2023-01-25T09:15:48.151Z,17.93
2023-01-25T09:18:18.010Z,22.97
2023-01-25T09:20:50.499Z,22.50
2023-01-25T09:23:22.997Z,11.57
2023-01-25T09:25:59.031Z,26.20
2023-01-25T09:28:30.424Z,14.23
2023-01-25T09:31:20.045Z,23.17
2023-01-25T09:34:10.112Z,23.10
2023-01-25T09:36:43.084Z,29.63
2023-01-25T09:39:14.774Z,25.60
2023-01-25T09:42:22.765Z,22.80
2023-01-25T09:45:13.919Z,18.13
2023-01-25T09:47:50.499Z,12.90
2023-01-25T09:50:33.612Z,20.70
2023-01-25T09:53:37.122Z,19.20
2023-01-25T09:56:12.822Z,16.37
2023-01-25T09:58:47.213Z,12.57
2023-01-25T10:01:38.013Z,24.60
2023-01-25T10:04:16.607Z,20.43
2023-01-25T10:06:59.875Z,16.90
2023-01-25T10:09:45.381Z,15.10
2023-01-25T10:12:19.704Z,22.10
2023-01-25T10:14:49.926Z,24.43
2023-01-25T10:17:30.235Z,18.63
2023-01-25T10:20:16.401Z,23.47
2023-01-25T10:22:51.999Z,17.37
2023-01-25T10:25:31.862Z,25.90
2023-01-25T10:28:29.864Z,26.67
2023-01-25T10:31:03.835Z,20.20
2023-01-25T10:33:38.010Z,19.57
2023-01-25T10:36:09.653Z,17.60
2023-01-25T10:38:43.187Z,25.73
2023-01-25T10:41:21.409Z,20.77
2023-01-25T10:44:11.420Z,21.40
2023-01-25T10:46:43.520Z,19.83
2023-01-25T10:49:26.303Z,26.93
2023-01-25T10:51:56.314Z,28.53
2023-01-25T10:54:29.384Z,22.00
2023-01-25T10:57:02.884Z,25.73
2023-01-25T10:59:33.889Z,24.60
2023-01-25T11:02:39.724Z,20.43
2023-01-25T11:05:32.339Z,15.97
2023-01-25T11:08:18.672Z,27.37
2023-01-25T11:10:49.104Z,28.47
2023-01-25T11:13:28.718Z,30.37
2023-01-25T11:16:19.589Z,27.83
2023-01-25T11:18:54.571Z,23.50
2023-01-25T11:21:27.620Z,27.67
2023-01-25T11:24:05.282Z,26.60
2023-01-25T11:26:36.475Z,25.80
2023-01-25T11:29:17.152Z,34.93
2023-01-25T11:31:49.482Z,23.47
2023-01-25T11:34:22.345Z,24.53
2023-01-25T11:37:15.875Z,32.20
2023-01-25T11:39:56.597Z,24.80
2023-01-25T11:42:37.925Z,32.23
2023-01-25T11:45:45.525Z,33.63
2023-01-25T11:48:33.998Z,12.10
2023-01-25T11:51:08.476Z,28.23
2023-01-25T11:54:03.978Z,22.37
2023-01-25T11:56:47.334Z,22.03
2023-01-25T11:59:32.139Z,28.90
2023-01-25T12:02:19.278Z,25.00
2023-01-25T12:05:21.659Z,39.77
2023-01-25T12:08:01.973Z,25.53
2023-01-25T12:10:43.131Z,19.70
2023-01-25T12:13:22.884Z,28.57
2023-01-25T12:16:11.611Z,20.67
2023-01-25T12:19:10.724Z,31.23
2023-01-25T12:21:54.883Z,28.03
2023-01-25T12:24:43.902Z,24.20
2023-01-25T12:27:26.154Z,32.37
2023-01-25T12:30:03.393Z,29.47
2023-01-25T12:32:40.785Z,34.87
2023-01-25T12:35:27.599Z,28.33
2023-01-25T12:38:02.512Z,25.97
2023-01-25T12:40:44.111Z,12.70
2023-01-25T12:43:20.079Z,30.67
2023-01-25T12:45:51.802Z,28.37
2023-01-25T12:48:25.431Z,26.00
2023-01-25T12:50:59.362Z,32.03
2023-01-25T12:53:36.386Z,28.23
2023-01-25T12:56:09.125Z,29.27
2023-01-25T12:58:47.758Z,17.63
2023-01-25T13:01:26.351Z,30.27
2023-01-25T13:04:09.244Z,28.70
2023-01-25T13:06:50.366Z,22.63
2023-01-25T13:09:26.263Z,28.23
2023-01-25T13:11:56.834Z,17.53
2023-01-25T13:14:37.844Z,26.73
2023-01-25T13:17:27.696Z,23.17
2023-01-25T13:19:57.709Z,22.80
2023-01-25T13:23:01.762Z,12.53
2023-01-25T13:25:31.855Z,17.60
2023-01-25T13:28:43.716Z,18.50
2023-01-25T13:31:50.025Z,23.13
2023-01-25T13:34:51.143Z,20.87
2023-01-25T13:37:22.728Z,16.60
2023-01-25T13:39:56.876Z,14.73
2023-01-25T13:42:28.162Z,11.83
2023-01-25T13:45:01.145Z,14.83
2023-01-25T13:47:37.914Z,21.60
2023-01-25T13:50:21.869Z,14.13
2023-01-25T13:53:02.266Z,11.23
2023-01-25T13:55:42.985Z,18.57
2023-01-25T13:58:14.297Z,8.10
2023-01-25T14:00:54.809Z,8.83
2023-01-25T14:03:29.663Z,14.43
2023-01-25T14:06:02.659Z,16.83
2023-01-25T14:08:33.714Z,21.53
2023-01-25T14:11:06.298Z,24.73
2023-01-25T14:13:36.242Z,23.23
2023-01-25T14:16:13.166Z,21.47
2023-01-25T14:18:45.245Z,21.07
2023-01-25T14:21:19.221Z,19.20
2023-01-25T14:23:50.293Z,10.40
2023-01-25T14:26:28.535Z,21.13
2023-01-25T14:29:02.423Z,16.20
2023-01-25T14:31:37.199Z,21.27
2023-01-25T14:34:09.472Z,21.70
2023-01-25T14:36:39.336Z,21.57
2023-01-25T14:39:19.994Z,15.77
2023-01-25T14:42:01.145Z,21.63
2023-01-25T14:44:32.960Z,23.27
2023-01-25T14:47:32.710Z,22.00
2023-01-25T14:50:34.402Z,30.63
2023-01-25T14:53:12.527Z,25.30
2023-01-25T14:55:47.654Z,21.07
2023-01-25T14:58:24.071Z,15.00
2023-01-25T15:00:57.634Z,23.97
2023-01-25T15:03:29.474Z,17.07
2023-01-25T15:06:01.594Z,21.00
2023-01-25T15:08:33.122Z,25.27
2023-01-25T15:11:23.838Z,19.70
2023-01-25T15:14:13.457Z,31.53
2023-01-25T15:16:43.309Z,24.70
2023-01-25T15:19:32.828Z,25.17
2023-01-25T15:22:03.391Z,26.07
2023-01-25T15:24:33.585Z,28.33
2023-01-25T15:27:03.647Z,31.70
2023-01-25T15:29:36.298Z,19.90
2023-01-25T15:32:06.299Z,22.70
2023-01-25T15:34:37.266Z,25.10
2023-01-25T15:37:07.229Z,22.97
2023-01-25T15:39:37.377Z,17.70
2023-01-25T15:42:07.628Z,18.53
2023-01-25T15:44:41.105Z,15.80
2023-01-25T15:47:12.933Z,15.80
2023-01-25T15:49:43.165Z,14.77
2023-01-25T15:52:14.076Z,15.03
2023-01-25T15:54:52.159Z,11.70
2023-01-25T15:57:34.195Z,17.30
2023-01-25T16:00:08.519Z,22.13
2023-01-25T16:02:39.075Z,17.53
2023-01-25T16:05:11.757Z,15.20
2023-01-25T16:07:43.645Z,19.20
2023-01-25T16:10:23.450Z,19.40
2023-01-25T16:12:53.714Z,16.07
2023-01-25T16:15:26.849Z,30.20
2023-01-25T16:17:56.582Z,19.80
2023-01-25T16:20:26.466Z,20.33
2023-01-25T16:22:56.267Z,16.87
2023-01-25T16:25:26.068Z,18.77
2023-01-25T16:27:55.876Z,20.67
2023-01-25T16:30:32.575Z,21.57
2023-01-25T16:33:02.606Z,23.33
2023-01-25T16:35:32.910Z,26.53
2023-01-25T16:38:02.796Z,15.90
2023-01-25T16:40:40.152Z,26.00
2023-01-25T16:43:10.017Z,24.40
2023-01-25T16:45:42.885Z,18.70
2023-01-25T16:48:18.090Z,24.50
2023-01-25T16:50:48.441Z,26.23
2023-01-25T16:53:18.537Z,22.40
2023-01-25T16:55:49.577Z,19.50
2023-01-25T16:58:19.783Z,20.33
2023-01-25T17:00:53.081Z,23.07
2023-01-25T17:03:23.012Z,17.07
2023-01-25T17:05:52.949Z,16.47
2023-01-25T17:08:23.155Z,13.50
2023-01-25T17:10:54.245Z,17.93
2023-01-25T17:13:24.564Z,17.00
2023-01-25T17:15:58.814Z,19.50
2023-01-25T17:18:29.234Z,14.87
2023-01-25T17:21:01.168Z,17.80
2023-01-25T17:23:33.451Z,20.00
2023-01-25T17:26:06.431Z,10.60
2023-01-25T17:28:36.420Z,18.00
2023-01-25T17:31:17.491Z,13.93
2023-01-25T17:33:48.027Z,14.80
2023-01-25T17:36:18.581Z,17.60
2023-01-25T17:38:49.367Z,14.00
2023-01-25T17:41:22.914Z,12.63
2023-01-25T17:43:55.541Z,13.17
2023-01-25T17:46:33.600Z,12.80
2023-01-25T17:49:05.450Z,10.80
2023-01-25T17:51:37.196Z,7.83
2023-01-25T17:54:08.247Z,13.80
2023-01-25T17:56:39.603Z,7.43
2023-01-25T17:59:11.777Z,15.73
2023-01-25T18:01:45.312Z,11.17
2023-01-25T18:04:17.724Z,11.30
2023-01-25T18:06:48.247Z,17.90
2023-01-25T18:09:18.525Z,16.90
2023-01-25T18:11:49.334Z,25.27
2023-01-25T18:14:20.334Z,20.53
2023-01-25T18:16:53.789Z,18.63
2023-01-25T18:19:23.703Z,19.70
2023-01-25T18:21:53.536Z,9.73
2023-01-25T18:24:29.854Z,13.70
2023-01-25T18:27:03.742Z,17.87
2023-01-25T18:29:55.253Z,18.30
2023-01-25T18:32:27.663Z,19.40
2023-01-25T18:34:57.783Z,16.70
2023-01-25T18:37:33.578Z,18.70
2023-01-25T18:40:03.691Z,21.87
2023-01-25T18:42:33.408Z,16.03
2023-01-25T18:45:03.417Z,13.27
2023-01-25T18:47:36.576Z,10.87
2023-01-25T18:50:09.165Z,22.17
2023-01-25T18:52:39.365Z,16.07
2023-01-25T18:55:11.023Z,18.17
2023-01-25T18:57:41.406Z,20.40
2023-01-25T19:00:15.334Z,21.67
2023-01-25T19:02:47.856Z,19.80
2023-01-25T19:05:19.467Z,16.53
2023-01-25T19:07:49.308Z,18.90
2023-01-25T19:10:21.307Z,21.43
2023-01-25T19:12:51.097Z,19.00
2023-01-25T19:15:21.432Z,21.10
2023-01-25T19:17:53.830Z,12.90
2023-01-25T19:20:24.055Z,15.27
2023-01-25T19:22:56.883Z,11.57
2023-01-25T19:25:27.258Z,20.73
2023-01-25T19:27:57.268Z,19.10
2023-01-25T19:30:28.566Z,16.30
2023-01-25T19:33:02.648Z,21.83
2023-01-25T19:35:32.661Z,22.37
2023-01-25T19:38:02.538Z,15.33
2023-01-25T19:40:32.741Z,15.63
2023-01-25T19:43:02.765Z,26.90
2023-01-25T19:45:33.233Z,21.03
2023-01-25T19:48:06.699Z,23.77
2023-01-25T19:50:37.497Z,17.97
2023-01-25T19:53:07.423Z,22.73
2023-01-25T19:55:38.078Z,12.30
2023-01-25T19:58:09.879Z,11.83
2023-01-25T20:00:40.166Z,15.67
2023-01-25T20:03:16.642Z,21.60
2023-01-25T20:05:47.568Z,19.87
2023-01-25T20:08:17.708Z,16.77
2023-01-25T20:10:47.853Z,18.77
2023-01-25T20:13:17.736Z,13.50
2023-01-25T20:15:49.586Z,18.53
2023-01-25T20:18:22.439Z,19.00
2023-01-25T20:20:58.966Z,15.50
2023-01-25T20:23:29.591Z,15.17
2023-01-25T20:26:00.902Z,18.10
2023-01-25T20:28:31.760Z,14.30
2023-01-25T20:31:04.037Z,21.10
2023-01-25T20:33:37.321Z,18.03
2023-01-25T20:36:08.700Z,14.70
2023-01-25T20:38:40.071Z,13.33
2023-01-25T20:41:13.726Z,11.77
2023-01-25T20:43:48.079Z,14.20
2023-01-25T20:46:18.823Z,8.83
2023-01-25T20:48:52.904Z,10.37
2023-01-25T20:51:24.100Z,11.27
2023-01-25T20:53:54.900Z,13.03
2023-01-25T20:56:25.902Z,16.07
2023-01-25T20:58:56.531Z,18.93
2023-01-25T21:01:28.405Z,16.53
2023-01-25T21:04:01.140Z,13.27
2023-01-25T21:06:31.402Z,15.43
2023-01-25T21:09:01.617Z,18.03
2023-01-25T21:11:32.075Z,15.67
2023-01-25T21:14:01.879Z,18.90
2023-01-25T21:16:32.483Z,12.37
2023-01-25T21:19:08.748Z,8.87
2023-01-25T21:21:39.471Z,17.00
2023-01-25T21:24:10.041Z,15.00
2023-01-25T21:26:40.674Z,11.90
2023-01-25T21:29:10.546Z,15.60
2023-01-25T21:31:43.196Z,18.00
2023-01-25T21:34:15.755Z,17.33
2023-01-25T21:36:45.604Z,16.27
2023-01-25T21:39:15.464Z,10.70
2023-01-25T21:41:45.623Z,10.17
2023-01-25T21:44:27.904Z,16.27
2023-01-25T21:47:27.799Z,14.93
2023-01-25T21:50:02.898Z,18.37
2023-01-25T21:52:35.311Z,13.33
2023-01-25T21:55:06.181Z,15.83
2023-01-25T21:57:36.506Z,12.53
2023-01-25T22:00:07.868Z,16.80
2023-01-25T22:02:38.259Z,14.13
2023-01-25T22:05:11.524Z,21.67
2023-01-25T22:07:41.893Z,15.40
2023-01-25T22:10:13.352Z,15.13
2023-01-25T22:12:43.891Z,13.07
2023-01-25T22:15:14.788Z,18.43
2023-01-25T22:17:44.909Z,23.80
2023-01-25T22:20:17.625Z,24.30
2023-01-25T22:22:48.109Z,29.33
2023-01-25T22:25:17.984Z,29.93
2023-01-25T22:27:53.664Z,20.40
2023-01-25T22:30:23.579Z,23.37
2023-01-25T22:32:53.753Z,25.97
2023-01-25T22:35:26.192Z,19.40
2023-01-25T22:37:56.987Z,16.47
2023-01-25T22:40:26.948Z,14.13
2023-01-25T22:42:57.835Z,17.23
2023-01-25T22:45:27.607Z,7.80
2023-01-25T22:47:57.912Z,16.50
2023-01-25T22:50:30.336Z,13.67
2023-01-25T22:53:01.042Z,15.20
2023-01-25T22:55:33.449Z,8.00
2023-01-25T22:58:03.236Z,7.20
2023-01-25T23:00:33.512Z,8.73
2023-01-25T23:03:03.380Z,10.33
2023-01-25T23:05:36.106Z,11.90
2023-01-25T23:08:06.139Z,7.20
2023-01-25T23:10:36.101Z,9.30
2023-01-25T23:13:06.047Z,13.67
2023-01-25T23:15:38.664Z,14.30
2023-01-25T23:18:21.108Z,11.20
2023-01-25T23:20:53.625Z,21.87
2023-01-25T23:23:23.486Z,16.63
2023-01-25T23:25:53.555Z,9.10
2023-01-25T23:28:23.524Z,20.40
2023-01-25T23:31:17.498Z,16.80
2023-01-25T23:33:48.372Z,14.83
2023-01-25T23:36:23.177Z,14.00
2023-01-25T23:38:54.395Z,18.13
2023-01-25T23:41:26.444Z,11.10
2023-01-25T23:43:57.903Z,17.87
2023-01-25T23:46:28.998Z,8.77
2023-01-25T23:48:59.018Z,10.67
2023-01-25T23:51:32.106Z,11.37
2023-01-25T23:54:01.871Z,21.50
2023-01-25T23:56:32.103Z,17.20
2023-01-25T23:59:01.932Z,17.40
